Time;durP1;ratioP1;P1;durP2;ratioP2;P2;SDS_P1;SDS_P2;PMS_P1;PMS_P2;Temp;Humidity;BMP_temperature;BMP_pressure;BME280_temperature;BME280_humidity;BME280_pressure;Samples;Min_cycle;Max_cycle;Signal;HPM_P1;HPM_P2
2022/07/29 00:00:07;;;;;;;;;;;;;;;23.60;37.49;100468.94;5018275;28;7282;-78
2022/07/29 00:02:33;;;;;;;;;;;;;;;23.59;37.20;100464.56;5010807;28;7200;-78
2022/07/29 00:04:59;;;;;;;;;;;;;;;23.56;37.99;100459.34;4975178;28;7166;-78
2022/07/29 00:07:25;;;;;;;;;;;;;;;23.51;37.37;100458.50;5015790;28;7183;-78
2022/07/29 00:09:50;;;;;;;;;;;;;;;23.48;37.83;100455.91;5016403;28;6779;-78
2022/07/29 00:12:16;;;;;;;;;;;;;;;23.43;38.13;100450.72;5020271;28;8139;-78
2022/07/29 00:14:42;;;;;;;;;;;;;;;23.40;38.11;100450.69;4985008;28;6780;-78
2022/07/29 00:17:07;;;;;;;;;;;;;;;23.37;37.87;100440.25;4997859;28;6953;-78
2022/07/29 00:19:34;;;;;;;;;;;;;;;23.35;38.11;100436.78;5015622;28;6783;-78
2022/07/29 00:22:00;;;;;;;;;;;;;;;23.32;38.15;100440.28;5015215;28;7362;-78
2022/07/29 00:24:26;;;;;;;;;;;;;;;23.31;37.99;100438.56;4982133;28;6855;-78
2022/07/29 00:26:52;;;;;;;;;;;;;;;23.30;37.65;100440.28;4995476;28;7000;-78
2022/07/29 00:29:18;;;;;;;;;;;;;;;23.33;38.04;100439.41;5009737;28;6775;-78
2022/07/29 00:31:44;;;;;;;;;;;;;;;23.35;38.03;100442.88;5016149;28;6971;-78
2022/07/29 00:35:43;;;;;;;;;;;;;;;23.38;37.75;100437.66;5003348;28;6983;-78
2022/07/29 00:36:56;;;;;;;;;;;;;;;23.41;37.88;100447.22;4984233;28;6898;-78
2022/07/29 00:39:22;;;;;;;;;;;;;;;23.41;37.81;100445.47;5016346;28;7146;-78
2022/07/29 00:41:48;;;;;;;;;;;;;;;23.42;38.06;100448.97;5030069;28;7029;-78
2022/07/29 00:44:14;;;;;;;;;;;;;;;23.41;37.80;100448.09;5017841;28;8759;-78
2022/07/29 00:46:40;;;;;;;;;;;;;;;23.41;38.24;100455.06;4984386;28;6853;-78
2022/07/29 00:49:07;;;;;;;;;;;;;;;23.40;38.07;100451.59;5004638;28;7269;-78
2022/07/29 00:51:36;;;;;;;;;;;;;;;23.41;37.96;100453.31;4976618;28;6853;-78
2022/07/29 00:54:04;;;;;;;;;;;;;;;23.42;37.87;100443.75;4977645;28;6800;-78
2022/07/29 00:56:33;;;;;;;;;;;;;;;23.43;37.83;100448.94;5011121;28;6807;-78
2022/07/29 00:59:00;;;;;;;;;;;;;;;23.44;38.20;100440.22;5010341;28;7039;-78
2022/07/29 01:01:26;;;;;;;;;;;;;;;23.46;37.97;100444.56;5022290;28;7064;-78
2022/07/29 01:03:52;;;;;;;;;;;;;;;23.46;38.06;100455.03;5012640;28;6844;-78
2022/07/29 01:06:19;;;;;;;;;;;;;;;23.45;38.39;100464.63;5012694;28;6955;-79
2022/07/29 01:08:48;;;;;;;;;;;;;;;23.39;38.36;100462.94;5012799;28;6796;-78
2022/07/29 01:11:16;;;;;;;;;;;;;;;23.32;38.77;100453.34;4986473;28;6997;-78
2022/07/29 01:13:44;;;;;;;;;;;;;;;23.23;39.75;100442.91;4992643;28;7218;-78
2022/07/29 01:16:25;;;;;;;;;;;;;;;23.08;39.44;100434.25;5023259;28;7042;-78
2022/07/29 01:19:02;;;;;;;;;;;;;;;22.98;40.07;100432.50;5008741;28;6946;-78
2022/07/29 01:21:52;;;;;;;;;;;;;;;22.84;40.24;100438.66;5026765;28;7155;-79
2022/07/29 01:25:03;;;;;;;;;;;;;;;22.70;40.80;100443.06;4977439;28;7002;-79
2022/07/29 01:28:01;;;;;;;;;;;;;;;22.60;40.96;100442.19;4995405;28;8159;-79
2022/07/29 01:30:30;;;;;;;;;;;;;;;22.51;41.46;100437.84;4979489;28;7195;-79
2022/07/29 01:33:05;;;;;;;;;;;;;;;22.44;41.81;100436.06;5026644;28;7183;-78
2022/07/29 01:35:49;;;;;;;;;;;;;;;22.39;41.63;100437.81;5009335;28;6823;-79
2022/07/29 01:38:24;;;;;;;;;;;;;;;22.33;41.92;100433.47;4997537;28;6998;-78
2022/07/29 01:41:02;;;;;;;;;;;;;;;22.30;41.97;100428.25;5010751;28;8175;-78
2022/07/29 01:43:51;;;;;;;;;;;;;;;22.26;41.85;100426.50;5027217;28;6990;-79
2022/07/29 01:46:33;;;;;;;;;;;;;;;22.20;42.29;100424.75;5009694;28;7876;-79
2022/07/29 01:49:17;;;;;;;;;;;;;;;22.18;42.17;100423.88;4979693;28;7224;-78
2022/07/29 01:52:02;;;;;;;;;;;;;;;22.13;42.53;100416.06;4966954;28;7080;-79
2022/07/29 01:54:35;;;;;;;;;;;;;;;22.10;42.78;100417.78;5007897;28;7353;-79
2022/07/29 01:57:04;;;;;;;;;;;;;;;22.08;42.49;100416.94;4971245;28;7083;-78
2022/07/29 01:59:34;;;;;;;;;;;;;;;22.05;42.73;100417.78;4990016;28;6985;-78
2022/07/29 02:02:02;;;;;;;;;;;;;;;22.05;42.83;100418.66;5000540;28;6982;-78
2022/07/29 02:04:31;;;;;;;;;;;;;;;22.06;42.77;100429.97;5009918;28;7182;-78
2022/07/29 02:07:04;;;;;;;;;;;;;;;22.07;42.75;100423.91;4973028;28;6864;-78
2022/07/29 02:09:35;;;;;;;;;;;;;;;22.08;42.51;100423.03;4998016;28;8101;-79
2022/07/29 02:12:04;;;;;;;;;;;;;;;22.09;42.51;100426.50;4994751;28;7133;-78
2022/07/29 02:14:43;;;;;;;;;;;;;;;22.09;42.43;100421.28;4976060;28;7197;-78
2022/07/29 02:17:13;;;;;;;;;;;;;;;22.11;42.52;100412.56;4979558;28;6965;-78
2022/07/29 02:19:43;;;;;;;;;;;;;;;22.09;42.32;100408.22;4965586;28;6970;-78
2022/07/29 02:22:12;;;;;;;;;;;;;;;22.08;42.16;100404.75;4957076;28;7207;-78
2022/07/29 02:24:40;;;;;;;;;;;;;;;22.06;42.47;100409.97;5003955;28;7275;-78
2022/07/29 02:27:08;;;;;;;;;;;;;;;22.07;42.55;100410.84;4994856;28;6991;-78
2022/07/29 02:29:36;;;;;;;;;;;;;;;22.08;42.43;100406.47;4981902;28;6811;-78
2022/07/29 02:32:04;;;;;;;;;;;;;;;22.07;42.72;100410.84;5025857;28;7506;-78
2022/07/29 02:34:33;;;;;;;;;;;;;;;22.05;42.53;100400.41;5001450;28;6855;-79
2022/07/29 02:37:00;;;;;;;;;;;;;;;22.05;42.75;100404.75;5009636;28;7197;-78
2022/07/29 02:39:29;;;;;;;;;;;;;;;22.02;42.47;100403.03;4978248;28;7265;-78
2022/07/29 02:42:03;;;;;;;;;;;;;;;21.99;42.51;100408.22;5010781;28;7224;-78
2022/07/29 02:44:29;;;;;;;;;;;;;;;21.91;42.68;100403.00;4983452;28;7028;-78
2022/07/29 02:47:19;;;;;;;;;;;;;;;21.88;42.77;100404.72;4979387;28;6812;-78
2022/07/29 02:50:08;;;;;;;;;;;;;;;21.78;43.26;100404.72;4996816;28;7329;-78
2022/07/29 02:52:41;;;;;;;;;;;;;;;21.77;43.29;100415.13;4991139;28;7506;-78
2022/07/29 02:55:58;;;;;;;;;;;;;;;21.79;43.36;100416.03;4981671;28;6878;-78
2022/07/29 02:58:30;;;;;;;;;;;;;;;21.84;43.55;100419.50;4975901;28;6884;-77
2022/07/29 03:01:11;;;;;;;;;;;;;;;21.88;43.39;100428.22;4979544;28;6811;-77
2022/07/29 03:03:39;;;;;;;;;;;;;;;21.89;43.70;100432.56;4990432;28;7270;-77
2022/07/29 03:06:07;;;;;;;;;;;;;;;21.89;43.70;100436.06;4998694;28;7930;-77
2022/07/29 03:08:35;;;;;;;;;;;;;;;21.86;44.18;100440.38;4968081;28;7239;-77
2022/07/29 03:11:01;;;;;;;;;;;;;;;21.81;44.13;100435.16;4983470;28;8210;-77
2022/07/29 03:13:30;;;;;;;;;;;;;;;21.76;44.55;100435.16;5009408;28;7233;-77
2022/07/29 03:15:57;;;;;;;;;;;;;;;21.71;45.01;100434.25;5023007;28;6981;-77
2022/07/29 03:18:24;;;;;;;;;;;;;;;21.67;45.48;100436.81;5010440;28;6800;-78
2022/07/29 03:20:50;;;;;;;;;;;;;;;21.57;45.61;100436.78;5025447;28;7055;-77
2022/07/29 03:23:23;;;;;;;;;;;;;;;21.50;45.69;100432.44;4979819;28;7549;-77
2022/07/29 03:25:50;;;;;;;;;;;;;;;21.44;45.81;100435.91;4973895;28;7221;-77
2022/07/29 03:28:16;;;;;;;;;;;;;;;21.43;46.06;100444.56;4966067;28;6969;-77
2022/07/29 03:30:41;;;;;;;;;;;;;;;21.42;46.14;100444.56;4972278;28;6784;-77
2022/07/29 03:33:07;;;;;;;;;;;;;;;21.41;46.66;100448.91;5009181;28;6800;-77
2022/07/29 03:35:32;;;;;;;;;;;;;;;21.41;46.25;100448.91;4972131;28;6780;-77
2022/07/29 03:37:59;;;;;;;;;;;;;;;21.40;46.56;100444.56;4973835;28;6803;-77
2022/07/29 03:40:48;;;;;;;;;;;;;;;21.41;46.29;100445.44;4991605;28;7238;-78
2022/07/29 03:43:18;;;;;;;;;;;;;;;21.39;46.28;100437.59;4997411;28;7203;-77
2022/07/29 03:45:49;;;;;;;;;;;;;;;21.38;46.62;100430.66;4983015;28;8174;-77
2022/07/29 03:48:21;;;;;;;;;;;;;;;21.31;46.93;100429.75;5005176;28;7206;-77
2022/07/29 03:50:50;;;;;;;;;;;;;;;21.27;46.94;100429.75;5003179;28;7369;-77
2022/07/29 03:53:16;;;;;;;;;;;;;;;21.22;47.29;100434.94;5002523;28;6804;-77
2022/07/29 03:55:48;;;;;;;;;;;;;;;21.20;47.10;100431.47;5009608;28;6981;-77
2022/07/29 03:58:16;;;;;;;;;;;;;;;21.20;47.60;100436.66;4975460;28;6839;-77
2022/07/29 04:00:43;;;;;;;;;;;;;;;21.21;47.12;100433.19;5007835;28;7227;-77
2022/07/29 04:03:10;;;;;;;;;;;;;;;21.21;47.22;100431.44;4997124;28;6796;-77
2022/07/29 04:05:36;;;;;;;;;;;;;;;21.23;46.79;100436.69;5006332;28;7110;-77
2022/07/29 04:08:02;;;;;;;;;;;;;;;21.25;46.92;100437.53;5005092;28;7069;-76
2022/07/29 04:10:27;;;;;;;;;;;;;;;21.26;46.90;100439.28;5011064;28;8151;-77
2022/07/29 04:12:53;;;;;;;;;;;;;;;21.27;46.90;100440.16;4971541;28;6832;-77
2022/07/29 04:15:19;;;;;;;;;;;;;;;21.26;47.16;100441.91;4970029;28;6972;-77
2022/07/29 04:17:45;;;;;;;;;;;;;;;21.22;46.99;100446.22;5004893;28;6779;-77
2022/07/29 04:20:14;;;;;;;;;;;;;;;21.22;47.12;100451.44;4972968;28;6796;-77
2022/07/29 04:22:40;;;;;;;;;;;;;;;21.24;47.36;100456.66;4981767;28;6993;-76
2022/07/29 04:25:07;;;;;;;;;;;;;;;21.28;47.19;100461.00;4995496;28;7144;-77
2022/07/29 04:27:32;;;;;;;;;;;;;;;21.34;47.27;100449.72;5014815;28;6934;-77
2022/07/29 04:29:58;;;;;;;;;;;;;;;21.41;47.17;100450.66;4977910;28;7179;-77
2022/07/29 04:32:25;;;;;;;;;;;;;;;21.46;47.05;100464.56;4983827;28;6949;-77
2022/07/29 04:34:50;;;;;;;;;;;;;;;21.51;47.14;100468.94;5015397;28;9600;-76
2022/07/29 04:37:16;;;;;;;;;;;;;;;21.56;46.70;100466.34;4979820;28;6784;-77
2022/07/29 04:39:42;;;;;;;;;;;;;;;21.61;46.60;100466.34;5015471;28;8095;-77
2022/07/29 04:42:07;;;;;;;;;;;;;;;21.62;46.79;100461.16;5014590;28;6776;-77
2022/07/29 04:44:33;;;;;;;;;;;;;;;21.64;46.70;100454.19;4999232;28;6960;-77
2022/07/29 04:46:58;;;;;;;;;;;;;;;21.67;46.84;100457.69;4981099;28;7149;-77
2022/07/29 04:49:24;;;;;;;;;;;;;;;21.68;46.33;100457.72;5000330;28;6986;-77
2022/07/29 04:51:50;;;;;;;;;;;;;;;21.70;46.28;100450.78;4982994;28;6776;-77
2022/07/29 04:54:15;;;;;;;;;;;;;;;21.72;46.23;100443.81;5029486;28;6974;-77
2022/07/29 04:56:41;;;;;;;;;;;;;;;21.74;46.63;100439.50;5015328;28;7231;-77
2022/07/29 04:59:07;;;;;;;;;;;;;;;21.76;46.58;100450.81;5013807;28;6800;-77
2022/07/29 05:01:33;;;;;;;;;;;;;;;21.78;46.58;100451.66;4980965;28;6824;-78
2022/07/29 05:03:59;;;;;;;;;;;;;;;21.80;46.53;100453.41;4997606;28;6943;-77
2022/07/29 05:06:24;;;;;;;;;;;;;;;21.78;46.61;100451.66;4992787;28;7040;-77
2022/07/29 05:08:50;;;;;;;;;;;;;;;21.77;46.82;100441.22;4983893;28;7283;-77
2022/07/29 05:11:15;;;;;;;;;;;;;;;21.78;47.17;100449.06;5016265;28;7208;-77
2022/07/29 05:13:41;;;;;;;;;;;;;;;21.77;47.41;100433.41;5013375;28;6859;-77
2022/07/29 05:16:08;;;;;;;;;;;;;;;21.75;47.41;100438.63;5014518;28;6983;-77
2022/07/29 05:18:34;;;;;;;;;;;;;;;21.71;48.08;100444.69;5012753;28;6996;-77
2022/07/29 05:20:59;;;;;;;;;;;;;;;21.64;48.55;100458.56;4981137;28;6784;-76
2022/07/29 05:23:25;;;;;;;;;;;;;;;21.51;49.09;100458.50;5015966;28;6921;-76
2022/07/29 05:25:51;;;;;;;;;;;;;;;21.41;50.09;100451.50;5014216;28;6780;-76
2022/07/29 05:28:17;;;;;;;;;;;;;;;21.33;50.48;100453.22;4977733;28;6796;-76
2022/07/29 05:30:44;;;;;;;;;;;;;;;21.28;50.33;100460.16;4976021;28;7439;-78
2022/07/29 05:33:10;;;;;;;;;;;;;;;21.24;50.86;100469.69;4981716;28;7291;-76
2022/07/29 05:35:36;;;;;;;;;;;;;;;21.21;50.74;100473.16;5010855;28;7869;-76
2022/07/29 05:38:03;;;;;;;;;;;;;;;21.14;50.79;100467.91;4995082;28;6991;-76
2022/07/29 05:40:29;;;;;;;;;;;;;;;21.08;51.29;100463.53;5002260;28;7129;-76
2022/07/29 05:42:55;;;;;;;;;;;;;;;21.06;51.68;100468.72;5025692;28;7006;-76
2022/07/29 05:45:21;;;;;;;;;;;;;;;21.07;52.04;100485.25;4974145;28;6860;-76
2022/07/29 05:47:46;;;;;;;;;;;;;;;21.07;51.53;100486.09;4983196;28;6996;-76
2022/07/29 05:50:12;;;;;;;;;;;;;;;21.07;51.91;100485.25;5014307;28;6935;-76
2022/07/29 05:52:38;;;;;;;;;;;;;;;21.09;52.17;100484.38;5007560;28;6843;-76
2022/07/29 05:55:05;;;;;;;;;;;;;;;21.15;52.32;100488.78;5013160;28;6800;-76
2022/07/29 05:57:31;;;;;;;;;;;;;;;21.25;52.57;100497.50;5001794;28;7003;-76
2022/07/29 05:59:56;;;;;;;;;;;;;;;21.35;52.39;100499.28;5011451;28;7053;-76
2022/07/29 06:02:22;;;;;;;;;;;;;;;21.44;52.87;100494.97;5001133;28;7158;-76
2022/07/29 06:04:49;;;;;;;;;;;;;;;21.55;52.08;100495.88;5002308;28;6949;-76
2022/07/29 06:07:16;;;;;;;;;;;;;;;21.60;51.86;100488.97;4980387;28;6932;-76
2022/07/29 06:09:42;;;;;;;;;;;;;;;21.64;51.80;100489.84;4982536;28;6808;-77
2022/07/29 06:12:07;;;;;;;;;;;;;;;21.63;52.07;100491.59;4984087;28;6788;-77
2022/07/29 06:14:33;;;;;;;;;;;;;;;21.63;52.01;100494.19;5012441;28;7035;-77
2022/07/29 06:16:59;;;;;;;;;;;;;;;21.63;52.11;100493.31;5012145;28;7203;-77
2022/07/29 06:19:24;;;;;;;;;;;;;;;21.63;52.35;100488.97;4981778;28;7096;-77
2022/07/29 06:21:50;;;;;;;;;;;;;;;21.66;52.23;100493.34;4993931;28;8451;-77
2022/07/29 06:24:16;;;;;;;;;;;;;;;21.70;52.23;100496.88;4979138;28;6852;-77
2022/07/29 06:26:43;;;;;;;;;;;;;;;21.77;52.28;100496.88;5011659;28;6860;-77
2022/07/29 06:29:12;;;;;;;;;;;;;;;21.89;52.28;100500.38;5009909;28;6776;-77
2022/07/29 06:31:38;;;;;;;;;;;;;;;22.01;52.31;100495.19;5011433;28;7439;-77
2022/07/29 06:34:04;;;;;;;;;;;;;;;22.12;52.31;100491.75;4998678;28;7462;-77
2022/07/29 06:36:30;;;;;;;;;;;;;;;22.23;52.09;100492.63;5004517;28;6819;-77
2022/07/29 06:38:56;;;;;;;;;;;;;;;22.32;51.70;100491.75;4991737;28;6941;-77
2022/07/29 06:41:22;;;;;;;;;;;;;;;22.43;51.40;100497.00;4976868;28;6923;-77
2022/07/29 06:43:51;;;;;;;;;;;;;;;22.54;51.19;100490.06;4979601;28;6833;-77
2022/07/29 06:46:19;;;;;;;;;;;;;;;22.70;51.43;100493.53;4981029;28;6970;-77
2022/07/29 06:48:47;;;;;;;;;;;;;;;22.90;51.25;100497.88;4982824;28;6812;-77
2022/07/29 06:51:13;;;;;;;;;;;;;;;23.06;50.95;100497.84;5011657;28;6925;-77
2022/07/29 06:53:39;;;;;;;;;;;;;;;23.18;50.15;100500.44;4980339;28;6960;-77
2022/07/29 06:56:08;;;;;;;;;;;;;;;23.30;49.93;100494.34;4982047;28;7126;-77
2022/07/29 06:58:34;;;;;;;;;;;;;;;23.41;49.88;100504.75;4975559;28;6985;-78
2022/07/29 07:01:06;;;;;;;;;;;;;;;23.48;49.88;100501.22;4974076;28;6847;-77
2022/07/29 07:03:32;;;;;;;;;;;;;;;23.54;49.18;100502.94;5011092;28;7160;-77
2022/07/29 07:05:58;;;;;;;;;;;;;;;23.58;49.17;100509.94;4974510;28;6784;-77
2022/07/29 07:08:25;;;;;;;;;;;;;;;23.58;48.91;100509.94;4973986;28;6781;-77
2022/07/29 07:10:51;;;;;;;;;;;;;;;23.53;48.00;100509.06;5011048;28;7219;-77
2022/07/29 07:13:17;;;;;;;;;;;;;;;23.51;48.91;100524.75;4976871;28;7766;-78
2022/07/29 07:15:45;;;;;;;;;;;;;;;23.51;48.86;100521.28;5008743;28;7190;-77
2022/07/29 07:18:10;;;;;;;;;;;;;;;23.54;48.66;100521.25;4987274;28;7006;-77
2022/07/29 07:20:36;;;;;;;;;;;;;;;23.57;48.83;100518.66;4980256;28;7159;-77
2022/07/29 07:23:03;;;;;;;;;;;;;;;23.64;49.01;100527.34;5007795;28;6980;-78
2022/07/29 07:25:28;;;;;;;;;;;;;;;23.69;48.87;100525.56;5006850;28;7892;-77
2022/07/29 07:27:54;;;;;;;;;;;;;;;23.74;48.36;100538.63;5013480;28;7129;-77
2022/07/29 07:30:20;;;;;;;;;;;;;;;23.77;48.76;100536.84;5009152;28;7239;-76
2022/07/29 07:32:46;;;;;;;;;;;;;;;23.82;49.22;100542.97;4977537;28;6952;-77
2022/07/29 07:35:12;;;;;;;;;;;;;;;23.88;48.91;100547.28;4984873;28;7215;-77
2022/07/29 07:37:40;;;;;;;;;;;;;;;23.98;49.12;100541.13;5004472;28;7225;-78
2022/07/29 07:40:08;;;;;;;;;;;;;;;24.10;49.25;100536.72;4978066;28;7342;-77
2022/07/29 07:42:34;;;;;;;;;;;;;;;24.30;49.01;100527.88;4997841;28;6968;-77
2022/07/29 07:45:00;;;;;;;;;;;;;;;24.48;48.21;100532.09;5010688;28;7370;-77
2022/07/29 07:47:25;;;;;;;;;;;;;;;24.69;47.79;100523.19;4991397;28;6951;-77
2022/07/29 07:49:51;;;;;;;;;;;;;;;24.90;47.28;100529.16;4982467;28;7110;-77
2022/07/29 07:52:20;;;;;;;;;;;;;;;25.16;47.30;100536.78;5010404;28;6811;-77
2022/07/29 07:54:47;;;;;;;;;;;;;;;25.44;46.22;100522.47;4982543;28;7662;-77
2022/07/29 07:57:13;;;;;;;;;;;;;;;25.68;45.76;100529.22;4984577;28;7098;-77
2022/07/29 07:59:40;;;;;;;;;;;;;;;25.91;44.78;100531.53;5026032;28;7144;-77
2022/07/29 08:02:06;;;;;;;;;;;;;;;26.17;44.97;100525.06;5011904;28;6804;-77
2022/07/29 08:04:32;;;;;;;;;;;;;;;26.49;44.08;100525.44;5003390;28;6979;-77
2022/07/29 08:07:00;;;;;;;;;;;;;;;26.80;42.80;100526.69;5013680;28;6843;-77
2022/07/29 08:09:28;;;;;;;;;;;;;;;27.03;42.11;100527.16;4984363;28;6985;-77
2022/07/29 08:11:54;;;;;;;;;;;;;;;27.20;41.69;100526.00;5013984;28;6799;-78
2022/07/29 08:14:20;;;;;;;;;;;;;;;27.28;40.96;100529.34;4983640;28;7982;-76
2022/07/29 08:16:46;;;;;;;;;;;;;;;27.31;40.47;100529.28;5016782;28;7801;-76
2022/07/29 08:19:13;;;;;;;;;;;;;;;27.39;39.98;100520.38;4980544;28;7226;-77
2022/07/29 08:21:38;;;;;;;;;;;;;;;27.49;39.52;100527.16;5014082;28;6935;-77
2022/07/29 08:26:49;;;;;;;;;;;;;;;27.62;39.04;100526.94;5010476;28;6785;-77
2022/07/29 08:29:16;;;;;;;;;;;;;;;27.78;38.86;100527.50;5009775;28;7227;-77
2022/07/29 08:31:42;;;;;;;;;;;;;;;27.97;39.01;100523.56;4976797;28;7255;-77
2022/07/29 08:34:08;;;;;;;;;;;;;;;28.26;38.74;100529.06;5012371;28;6796;-77
2022/07/29 08:36:33;;;;;;;;;;;;;;;28.59;37.71;100528.28;5003027;28;6990;-77
2022/07/29 08:39:00;;;;;;;;;;;;;;;28.93;37.56;100524.81;4980238;28;7137;-77
2022/07/29 08:41:26;;;;;;;;;;;;;;;29.30;36.56;100530.84;5016606;28;7831;-78
2022/07/29 08:43:53;;;;;;;;;;;;;;;29.52;35.63;100525.84;4995281;28;7176;-77
2022/07/29 08:46:20;;;;;;;;;;;;;;;29.59;34.62;100529.16;4983182;28;6800;-77
2022/07/29 08:48:47;;;;;;;;;;;;;;;29.49;35.03;100532.06;5017807;28;6792;-78
2022/07/29 08:51:16;;;;;;;;;;;;;;;29.28;34.00;100530.03;4983672;28;6957;-78
2022/07/29 08:53:45;;;;;;;;;;;;;;;29.20;34.79;100539.00;4979380;28;6776;-78
2022/07/29 08:56:17;;;;;;;;;;;;;;;29.19;34.88;100541.69;5002230;28;7140;-78
2022/07/29 08:58:47;;;;;;;;;;;;;;;29.28;34.95;100541.44;4978170;28;7296;-78
2022/07/29 09:01:23;;;;;;;;;;;;;;;29.61;34.28;100541.41;5028644;28;8796;-78
2022/07/29 09:03:54;;;;;;;;;;;;;;;29.94;34.13;100541.28;4972985;28;7193;-78
2022/07/29 09:06:22;;;;;;;;;;;;;;;30.00;33.57;100539.38;4982000;28;6796;-78
2022/07/29 09:08:48;;;;;;;;;;;;;;;29.80;33.57;100541.72;5015070;28;6799;-78
2022/07/29 09:11:14;;;;;;;;;;;;;;;29.57;33.50;100542.41;5012879;28;7213;-78
2022/07/29 09:13:41;;;;;;;;;;;;;;;29.29;33.75;100544.94;5013394;28;6872;-78
2022/07/29 09:16:06;;;;;;;;;;;;;;;28.96;33.78;100541.38;5019135;28;7071;-78
2022/07/29 09:18:42;;;;;;;;;;;;;;;28.61;34.23;100548.44;4980232;28;7910;-79
2022/07/29 09:24:11;;;;;;;;;;;;;;;27.82;35.84;100550.22;5009244;28;7036;-78
2022/07/29 09:26:42;;;;;;;;;;;;;;;27.57;36.55;100556.88;4977721;28;7102;-78
2022/07/29 09:29:19;;;;;;;;;;;;;;;27.39;37.06;100557.19;4979201;28;7228;-78
2022/07/29 09:31:48;;;;;;;;;;;;;;;27.27;37.24;100560.94;4983804;28;7269;-78
2022/07/29 09:34:21;;;;;;;;;;;;;;;27.15;38.23;100554.16;4980603;28;6982;-77
2022/07/29 09:36:49;;;;;;;;;;;;;;;26.99;38.58;100553.53;4994104;28;7117;-78
2022/07/29 09:39:45;;;;;;;;;;;;;;;26.76;39.12;100558.31;4988727;28;6792;-78
2022/07/29 09:42:12;;;;;;;;;;;;;;;26.55;39.68;100569.16;4984115;28;7285;-78
2022/07/29 09:44:49;;;;;;;;;;;;;;;26.38;39.85;100565.03;5011824;28;7205;-78
2022/07/29 09:47:18;;;;;;;;;;;;;;;26.20;40.50;100566.16;4984198;28;6971;-78
2022/07/29 09:50:10;;;;;;;;;;;;;;;25.97;40.99;100566.47;5014862;28;7849;-78
2022/07/29 09:52:53;;;;;;;;;;;;;;;25.78;41.71;100566.69;4981069;28;7008;-78
2022/07/29 09:55:19;;;;;;;;;;;;;;;25.67;41.49;100568.59;4981692;28;7416;-78
2022/07/29 09:57:46;;;;;;;;;;;;;;;25.55;42.43;100570.47;5011623;28;7231;-77
2022/07/29 10:00:19;;;;;;;;;;;;;;;25.48;42.41;100576.63;4979191;28;7234;-78
2022/07/29 10:02:47;;;;;;;;;;;;;;;25.41;42.87;100575.00;4984075;28;11304;-78
2022/07/29 10:05:22;;;;;;;;;;;;;;;25.37;44.01;100576.78;5006374;28;6792;-78
2022/07/29 10:07:55;;;;;;;;;;;;;;;25.40;43.97;100583.72;4980467;28;7076;-78
2022/07/29 10:10:25;;;;;;;;;;;;;;;25.49;45.01;100591.50;4981712;28;6792;-78
2022/07/29 10:12:53;;;;;;;;;;;;;;;25.72;45.24;100590.41;5010434;28;9441;-77
2022/07/29 10:15:26;;;;;;;;;;;;;;;26.05;43.99;100585.59;4983139;28;7090;-76
2022/07/29 10:17:54;;;;;;;;;;;;;;;26.33;44.06;100588.75;4979482;28;7239;-77
2022/07/29 10:20:21;;;;;;;;;;;;;;;26.76;43.73;100592.47;5012895;28;7203;-77
2022/07/29 10:22:48;;;;;;;;;;;;;;;27.30;42.24;100588.06;4956588;28;6955;-77
2022/07/29 10:25:17;;;;;;;;;;;;;;;27.75;40.74;100596.00;4969728;28;6895;-77
2022/07/29 10:27:46;;;;;;;;;;;;;;;28.14;41.03;100585.50;5005489;28;8158;-77
2022/07/29 10:30:14;;;;;;;;;;;;;;;28.83;39.93;100577.81;4971220;28;8432;-77
2022/07/29 10:33:00;;;;;;;;;;;;;;;29.77;38.58;100570.88;5005100;28;8234;-77
2022/07/29 10:36:02;;;;;;;;;;;;;;;30.80;37.97;100566.84;4996232;28;9043;-77
2022/07/29 10:38:42;;;;;;;;;;;;;;;31.71;34.90;100560.06;4995761;28;8286;-78
2022/07/29 10:41:32;;;;;;;;;;;;;;;31.88;33.56;100567.41;4976505;28;8255;-78
2022/07/29 10:44:06;;;;;;;;;;;;;;;31.71;33.12;100568.00;4976140;28;8568;-78
2022/07/29 10:46:38;;;;;;;;;;;;;;;31.81;33.41;100568.56;4977873;28;7098;-78
2022/07/29 10:49:20;;;;;;;;;;;;;;;32.16;32.48;100561.03;4977192;28;7105;-78
2022/07/29 10:52:05;;;;;;;;;;;;;;;32.61;32.51;100550.38;5006364;28;8303;-78
2022/07/29 10:54:37;;;;;;;;;;;;;;;33.33;32.08;100543.75;4978846;28;7165;-78
2022/07/29 10:57:27;;;;;;;;;;;;;;;33.87;30.46;100548.38;4974523;28;7130;-78
2022/07/29 11:00:04;;;;;;;;;;;;;;;34.14;29.69;100548.00;5006991;28;7004;-79
2022/07/29 11:02:32;;;;;;;;;;;;;;;34.33;29.29;100552.41;4977576;28;6990;-78
2022/07/29 11:04:57;;;;;;;;;;;;;;;34.48;29.00;100556.09;4975396;28;7152;-77
2022/07/29 11:07:24;;;;;;;;;;;;;;;34.82;29.18;100553.56;5006822;28;6979;-77
2022/07/29 11:10:11;;;;;;;;;;;;;;;35.31;28.03;100550.13;5010692;28;8598;-77
2022/07/29 11:12:37;;;;;;;;;;;;;;;35.53;27.24;100552.47;4978731;28;7286;-77
2022/07/29 11:15:16;;;;;;;;;;;;;;;35.51;27.46;100546.38;4979004;28;6855;-77
2022/07/29 11:17:56;;;;;;;;;;;;;;;35.49;27.08;100548.25;5003414;28;7371;-77
2022/07/29 11:20:36;;;;;;;;;;;;;;;35.81;27.82;100547.47;4979173;28;6993;-77
2022/07/29 11:23:31;;;;;;;;;;;;;;;36.07;26.81;100555.78;4972618;28;6796;-77
2022/07/29 11:26:09;;;;;;;;;;;;;;;36.03;27.01;100554.22;5012503;28;7296;-77
2022/07/29 11:29:03;;;;;;;;;;;;;;;36.34;26.98;100556.03;4966449;28;6787;-77
2022/07/29 11:31:53;;;;;;;;;;;;;;;36.79;26.53;100557.88;5002491;28;7062;-77
2022/07/29 11:34:27;;;;;;;;;;;;;;;36.96;25.77;100552.38;4976574;28;7155;-77
2022/07/29 11:37:13;;;;;;;;;;;;;;;37.22;25.88;100549.06;4979196;28;7227;-77
2022/07/29 11:39:52;;;;;;;;;;;;;;;37.41;24.58;100553.25;4981065;28;6937;-77
2022/07/29 11:42:23;;;;;;;;;;;;;;;37.34;24.91;100550.09;4977011;28;7062;-77
2022/07/29 11:44:57;;;;;;;;;;;;;;;37.28;24.18;100558.50;5011764;28;6872;-78
2022/07/29 11:47:25;;;;;;;;;;;;;;;37.13;24.74;100552.31;5031018;28;7195;-77
2022/07/29 11:49:53;;;;;;;;;;;;;;;37.01;24.41;100559.25;5014803;28;7220;-78
2022/07/29 11:52:20;;;;;;;;;;;;;;;36.82;24.33;100555.03;4981204;28;7391;-77
2022/07/29 11:54:49;;;;;;;;;;;;;;;36.89;25.29;100553.69;4991735;28;6983;-77
2022/07/29 11:57:18;;;;;;;;;;;;;;;37.24;25.11;100553.34;4978068;28;6890;-77
2022/07/29 11:59:46;;;;;;;;;;;;;;;37.77;24.63;100551.88;4983733;28;6804;-77
2022/07/29 12:02:14;;;;;;;;;;;;;;;38.12;23.58;100554.09;4976497;28;6812;-77
2022/07/29 12:04:52;;;;;;;;;;;;;;;37.99;23.63;100554.03;4979765;28;7877;-77
2022/07/29 12:07:25;;;;;;;;;;;;;;;37.71;23.51;100552.28;5010511;28;7208;-77
2022/07/29 12:09:53;;;;;;;;;;;;;;;37.31;24.22;100542.28;5007521;28;6824;-77
2022/07/29 12:12:19;;;;;;;;;;;;;;;37.13;24.46;100549.63;5014628;28;7166;-77
2022/07/29 12:14:46;;;;;;;;;;;;;;;37.09;24.13;100549.81;5018421;28;6860;-77
2022/07/29 12:17:30;;;;;;;;;;;;;;;37.14;23.87;100546.03;4974983;28;6866;-77
2022/07/29 12:19:59;;;;;;;;;;;;;;;37.12;23.71;100543.44;4974214;28;7214;-77
2022/07/29 12:22:37;;;;;;;;;;;;;;;37.13;23.29;100541.63;4989538;28;6984;-77
2022/07/29 12:25:14;;;;;;;;;;;;;;;37.22;23.56;100544.59;5006705;28;6823;-77
2022/07/29 12:27:40;;;;;;;;;;;;;;;37.30;22.89;100545.94;4968900;28;6800;-76
2022/07/29 12:30:10;;;;;;;;;;;;;;;37.23;22.88;100540.09;4974845;28;6803;-77
2022/07/29 12:32:43;;;;;;;;;;;;;;;37.09;23.50;100543.66;5007063;28;6987;-77
2022/07/29 12:35:17;;;;;;;;;;;;;;;36.82;23.27;100547.03;4994030;28;7245;-77
2022/07/29 12:37:51;;;;;;;;;;;;;;;36.29;23.05;100552.75;5003226;28;7954;-77
2022/07/29 12:40:18;;;;;;;;;;;;;;;35.88;24.18;100550.63;4973835;28;6975;-77
2022/07/29 12:43:11;;;;;;;;;;;;;;;35.79;24.17;100550.19;5009020;28;6950;-78
2022/07/29 12:45:44;;;;;;;;;;;;;;;35.81;23.76;100547.47;4979204;28;7326;-77
2022/07/29 12:48:10;;;;;;;;;;;;;;;35.89;23.91;100553.22;5003363;28;7312;-77
2022/07/29 12:50:54;;;;;;;;;;;;;;;35.89;23.49;100549.69;4974126;28;6939;-77
2022/07/29 12:53:20;;;;;;;;;;;;;;;35.56;23.81;100541.69;5015621;28;6994;-76
2022/07/29 12:55:54;;;;;;;;;;;;;;;35.43;24.78;100552.13;5016888;28;6803;-77
2022/07/29 12:58:46;;;;;;;;;;;;;;;35.22;23.91;100543.50;4977692;28;7851;-77
2022/07/29 13:01:19;;;;;;;;;;;;;;;35.10;24.58;100533.50;4981162;28;7141;-78
2022/07/29 13:03:47;;;;;;;;;;;;;;;35.24;24.74;100543.41;4978088;28;6811;-77
2022/07/29 13:06:36;;;;;;;;;;;;;;;35.35;25.09;100538.34;5009023;28;7162;-77
2022/07/29 13:09:17;;;;;;;;;;;;;;;35.57;24.37;100535.41;4982886;28;6952;-77